TAF Text Data
IDs:
Format:
Raw Decoded Include METAR

Data at: 1654 UTC 20 May 2022

VVPQ 201630Z 24008KT 9999 SCT015 29/24 Q1009 NOSIG

TAF VVPQ 201100Z 2012/2112 27010KT 9999 SCT015
  TEMPO 2022/2102 29016G28KT 5000 TSRA SCT013 FEW015CB